logo
Search for airport 
image banner adimage banner adimage banner ad
image banner ad

UBBN - Nakhchivan

Located in Nakhchivan, Azerbaijan

ICAO - UBBN, IATA - NAJ

Data provided by Airmate  

General information

Coordinates: N39°11'19" E45°27'26"
Elevation is 2864 feet MSL.
Magnetic variation is 6° East
View others Airports in Naxcivan

Operational data

Special qualification required
Current time UTC:
Current local time:
Weather
METAR: UBBN 021700Z 04004KT 9999 SCT040 01/M00 Q1008 NOSIG RMK MT OP QFE683
TAF: TAF COR UBBN 021055Z 0213/0312 VRB04KT 8000 BKN030 OVC080 TX06/0214Z TNM02/0303Z TEMPO 0213/0222 16014KT 4000 -SHRASN SCT026CB OVC040 TEMPO 0223/0306 22010KT 2000 SN OVC010
View NOTAMs / SUP AIP / TFR affecting this airport [VIEW]
Communications frequencies: [VIEW]

Runways:

RWY identifierQFULength (ft)Width (ft)SurfaceLDA (ft)
14R138°10827148CONC10827
32L318°10827148CONC10453
14L138°10827148CONC+ASPH10827
32R318°10827148CONC+ASPH10827

Airport contact information

Address: Nakhchivan Azerbaijan

Satellite view of UBBN